createdAt,value
2023-08-10T00:00:49.020Z,102254.53
2023-08-10T00:05:41.747Z,102252.13
2023-08-10T00:10:31.720Z,102234.50
2023-08-10T00:15:21.860Z,102264.06
2023-08-10T00:20:13.093Z,102247.44
2023-08-10T00:25:06.809Z,102253.13
2023-08-10T00:29:57.093Z,102250.66
2023-08-10T00:34:47.048Z,102254.09
2023-08-10T00:39:38.286Z,102258.66
2023-08-10T00:44:31.010Z,102228.84
2023-08-10T00:49:21.203Z,102241.16
2023-08-10T00:54:11.424Z,102244.63
2023-08-10T00:59:01.613Z,102232.16
2023-08-10T01:03:54.239Z,102234.44
2023-08-10T01:08:52.037Z,102226.31
2023-08-10T01:13:48.379Z,102232.69
2023-08-10T01:18:39.471Z,102226.28
2023-08-10T01:23:38.409Z,102247.19
2023-08-10T01:28:46.919Z,102245.50
2023-08-10T01:33:37.535Z,102220.25
2023-08-10T01:38:27.500Z,102227.53
2023-08-10T01:43:17.539Z,102241.16
2023-08-10T01:48:16.631Z,102250.75
2023-08-10T01:53:09.909Z,102244.81
2023-08-10T01:58:00.731Z,102241.72
2023-08-10T02:02:50.950Z,102250.91
2023-08-10T02:07:49.916Z,102242.63
2023-08-10T02:12:40.440Z,102258.84
2023-08-10T02:17:36.938Z,102248.81
2023-08-10T02:22:26.742Z,102248.38
2023-08-10T02:27:19.455Z,102248.47
2023-08-10T02:32:11.811Z,102239.19
2023-08-10T02:37:01.989Z,102255.28
2023-08-10T02:41:54.560Z,102239.00
2023-08-10T02:46:47.107Z,102256.50
2023-08-10T02:51:40.062Z,102260.16
2023-08-10T02:56:30.242Z,102180.88
2023-08-10T03:01:21.738Z,102225.28
2023-08-10T03:06:14.564Z,102264.50
2023-08-10T03:11:06.641Z,102260.72
2023-08-10T03:15:57.906Z,102240.94
2023-08-10T03:20:49.200Z,102256.28
2023-08-10T03:25:42.032Z,102234.25
2023-08-10T03:30:34.123Z,102251.09
2023-08-10T03:35:24.656Z,102248.72
2023-08-10T03:40:15.494Z,102215.13
2023-08-10T03:45:09.479Z,102239.88
2023-08-10T03:49:59.678Z,102255.88
2023-08-10T03:54:51.149Z,102244.41
2023-08-10T03:59:41.685Z,102270.22
2023-08-10T04:04:34.872Z,102277.00
2023-08-10T04:09:25.092Z,102229.47
2023-08-10T04:14:15.229Z,102253.69
2023-08-10T04:19:05.327Z,102281.56
2023-08-10T04:23:58.136Z,102272.94
2023-08-10T04:28:48.120Z,102278.09
2023-08-10T04:33:38.643Z,102275.06
2023-08-10T04:38:28.633Z,102276.38
2023-08-10T04:43:21.291Z,102291.28
2023-08-10T04:48:11.698Z,102240.41
2023-08-10T04:53:01.577Z,102266.03
2023-08-10T04:57:51.611Z,102221.69
2023-08-10T05:02:45.208Z,102245.16
2023-08-10T05:07:36.745Z,102272.41
2023-08-10T05:12:29.574Z,102290.75
2023-08-10T05:17:22.854Z,102256.59
2023-08-10T05:22:15.684Z,102269.25
2023-08-10T05:27:06.090Z,102282.88
2023-08-10T05:31:56.233Z,102280.91
2023-08-10T05:36:46.370Z,102246.47
2023-08-10T05:41:39.553Z,102279.84
2023-08-10T05:46:29.767Z,102215.75
2023-08-10T05:51:19.749Z,102256.91
2023-08-10T05:56:09.878Z,102257.38
2023-08-10T06:01:02.874Z,102281.03
2023-08-10T06:05:52.937Z,102252.81
2023-08-10T06:10:43.156Z,102192.38
2023-08-10T06:15:33.353Z,102256.00
2023-08-10T06:20:29.396Z,102203.59
2023-08-10T06:25:21.893Z,102249.63
2023-08-10T06:30:16.949Z,102272.84
2023-08-10T06:35:09.876Z,102260.09
2023-08-10T06:40:02.570Z,102262.84
2023-08-10T06:44:52.674Z,102264.63
2023-08-10T06:49:42.785Z,102280.25
2023-08-10T06:54:32.989Z,102252.09
2023-08-10T06:59:25.979Z,102270.91
2023-08-10T07:04:15.968Z,102257.16
2023-08-10T07:09:06.473Z,102275.19
2023-08-10T07:13:56.444Z,102256.38
2023-08-10T07:18:49.628Z,102268.50
2023-08-10T07:23:39.843Z,102261.34
2023-08-10T07:28:30.002Z,102268.00
2023-08-10T07:33:20.516Z,102253.84
2023-08-10T07:38:13.296Z,102258.78
2023-08-10T07:43:03.728Z,102259.03
2023-08-10T07:47:53.832Z,102284.28
2023-08-10T07:52:43.893Z,102280.31
2023-08-10T07:57:36.713Z,102277.50
2023-08-10T08:02:29.084Z,102291.63
2023-08-10T08:07:20.393Z,102278.22
2023-08-10T08:12:10.759Z,102288.66
2023-08-10T08:17:03.480Z,102293.56
2023-08-10T08:21:53.428Z,102294.78
2023-08-10T08:26:44.595Z,102284.16
2023-08-10T08:31:35.034Z,102294.53
2023-08-10T08:36:28.044Z,102296.00
2023-08-10T08:41:21.720Z,102296.59
2023-08-10T08:46:15.369Z,102296.22
2023-08-10T08:51:05.895Z,102292.94
2023-08-10T08:55:58.647Z,102291.63
2023-08-10T09:00:51.971Z,102292.69
2023-08-10T09:05:42.066Z,102285.50
2023-08-10T09:10:32.899Z,102280.66
2023-08-10T09:15:29.286Z,102277.00
2023-08-10T09:20:24.047Z,102285.09
2023-08-10T09:25:14.811Z,102275.41
2023-08-10T09:30:07.547Z,102279.19
2023-08-10T09:35:02.982Z,102281.31
2023-08-10T09:39:57.693Z,102276.66
2023-08-10T09:44:48.936Z,102270.25
2023-08-10T09:49:39.088Z,102273.47
2023-08-10T09:54:32.734Z,102274.38
2023-08-10T09:59:23.112Z,102276.38
2023-08-10T10:04:13.871Z,102283.16
2023-08-10T10:09:06.154Z,102287.94
2023-08-10T10:14:02.424Z,102278.75
2023-08-10T10:18:53.000Z,102273.88
2023-08-10T10:23:45.239Z,102282.75
2023-08-10T10:28:36.436Z,102246.00
2023-08-10T10:33:30.411Z,102263.44
2023-08-10T10:38:20.696Z,102259.78
2023-08-10T10:43:17.039Z,102271.53
2023-08-10T10:48:10.449Z,102269.97
2023-08-10T10:53:04.816Z,102265.47
2023-08-10T10:57:55.208Z,102268.28
2023-08-10T11:02:45.828Z,102284.53
2023-08-10T11:07:45.584Z,102262.06
2023-08-10T11:12:40.794Z,102245.41
2023-08-10T11:17:47.744Z,102258.06
2023-08-10T11:22:41.705Z,102272.03
2023-08-10T11:27:31.824Z,102254.41
2023-08-10T11:32:27.940Z,102265.88
2023-08-10T11:37:18.022Z,102223.03
2023-08-10T11:42:08.240Z,102260.25
2023-08-10T11:47:00.647Z,102262.13
2023-08-10T11:51:53.554Z,102265.53
2023-08-10T11:56:48.374Z,102248.25
2023-08-10T12:01:48.472Z,102255.91
2023-08-10T12:06:43.542Z,102243.34
2023-08-10T12:11:36.550Z,102236.28
2023-08-10T12:16:28.836Z,102179.41
2023-08-10T12:21:19.168Z,102219.00
2023-08-10T12:26:13.223Z,102233.94
2023-08-10T12:31:11.615Z,102240.41
2023-08-10T12:36:04.315Z,102239.69
2023-08-10T12:40:55.759Z,102242.13
2023-08-10T12:45:47.240Z,102244.84
2023-08-10T12:50:41.278Z,102239.31
2023-08-10T12:55:33.550Z,102229.91
2023-08-10T13:00:27.659Z,102244.63
2023-08-10T13:05:19.641Z,102215.97
2023-08-10T13:10:14.566Z,102207.56
2023-08-10T13:15:08.562Z,102238.44
2023-08-10T13:20:01.502Z,102236.19
2023-08-10T13:24:52.199Z,102238.19
2023-08-10T13:29:48.309Z,102135.84
2023-08-10T13:34:39.752Z,102231.84
2023-08-10T13:39:30.340Z,102234.31
2023-08-10T13:44:20.755Z,102201.22
2023-08-10T13:49:16.905Z,102156.19
2023-08-10T13:54:07.477Z,102227.97
2023-08-10T13:58:57.528Z,102221.84
2023-08-10T14:03:47.970Z,102218.03
2023-08-10T14:08:41.586Z,102221.84
2023-08-10T14:13:32.989Z,102216.22
2023-08-10T14:18:23.993Z,102211.53
2023-08-10T14:23:14.106Z,102198.44
2023-08-10T14:28:07.341Z,102177.16
2023-08-10T14:32:57.666Z,102167.59
2023-08-10T14:37:47.740Z,102194.78
2023-08-10T14:42:37.847Z,102179.25
2023-08-10T14:47:30.825Z,102198.06
2023-08-10T14:52:21.065Z,102197.09
2023-08-10T14:57:11.326Z,102194.03
2023-08-10T15:02:01.396Z,102125.22
2023-08-10T15:06:54.232Z,102185.09
2023-08-10T15:11:44.281Z,102178.72
2023-08-10T15:16:34.627Z,102173.44
2023-08-10T15:21:24.823Z,102172.69
2023-08-10T15:26:18.782Z,102167.19
2023-08-10T15:31:10.330Z,102149.03
2023-08-10T15:36:00.458Z,102139.72
2023-08-10T15:40:51.296Z,102117.94
2023-08-10T15:45:45.270Z,102130.91
2023-08-10T15:50:35.576Z,102134.13
2023-08-10T15:55:25.681Z,102139.94
2023-08-10T16:00:16.940Z,102141.59
2023-08-10T16:05:10.895Z,102121.72
2023-08-10T16:10:01.232Z,102135.38
2023-08-10T16:14:51.310Z,102143.78
2023-08-10T16:19:41.496Z,102147.09
2023-08-10T16:24:34.175Z,102157.84
2023-08-10T16:29:24.434Z,102153.88
2023-08-10T16:34:14.383Z,102153.38
2023-08-10T16:39:04.604Z,102138.00
2023-08-10T16:43:57.846Z,102156.13
2023-08-10T16:48:47.757Z,102172.59
2023-08-10T16:53:37.711Z,102121.91
2023-08-10T16:58:28.768Z,102147.97
2023-08-10T17:03:21.510Z,102151.25
2023-08-10T17:08:11.734Z,102148.72
2023-08-10T17:13:03.943Z,102127.66
2023-08-10T17:17:54.125Z,102140.81
2023-08-10T17:22:46.881Z,102145.28
2023-08-10T17:27:39.511Z,102125.78
2023-08-10T17:32:29.890Z,102132.63
2023-08-10T17:37:19.995Z,102136.44
2023-08-10T17:42:12.599Z,102153.97
2023-08-10T17:47:03.457Z,102119.06
2023-08-10T17:51:54.418Z,102148.19
2023-08-10T17:56:44.441Z,102127.34
2023-08-10T18:01:37.088Z,102149.63
2023-08-10T18:06:27.224Z,102161.28
2023-08-10T18:11:18.229Z,102144.28
2023-08-10T18:16:08.692Z,102146.53
2023-08-10T18:21:02.898Z,102132.84
2023-08-10T18:25:53.432Z,102135.63
2023-08-10T18:30:44.493Z,102136.47
2023-08-10T18:35:34.773Z,102133.00
2023-08-10T18:40:27.490Z,102129.00
2023-08-10T18:45:17.628Z,102129.94
2023-08-10T18:50:08.524Z,102120.31
2023-08-10T18:54:58.453Z,102138.56
2023-08-10T18:59:51.005Z,102131.84
2023-08-10T19:04:41.004Z,102145.13
2023-08-10T19:09:31.004Z,102129.16
2023-08-10T19:14:21.173Z,102051.50
2023-08-10T19:19:13.969Z,102148.31
2023-08-10T19:24:04.023Z,102163.97
2023-08-10T19:28:56.400Z,102148.84
2023-08-10T19:33:46.923Z,102142.38
2023-08-10T19:38:39.803Z,102132.66
2023-08-10T19:43:29.917Z,102133.03
2023-08-10T19:48:20.119Z,102159.44
2023-08-10T19:53:10.268Z,102135.16
2023-08-10T19:58:03.562Z,102165.50
2023-08-10T20:02:53.881Z,102159.50
2023-08-10T20:07:43.985Z,102054.00
2023-08-10T20:12:34.007Z,102140.91
2023-08-10T20:17:26.783Z,102156.66
2023-08-10T20:22:16.833Z,102120.88
2023-08-10T20:27:10.664Z,102106.81
2023-08-10T20:32:02.881Z,102171.00
2023-08-10T20:36:55.538Z,102168.00
2023-08-10T20:41:45.780Z,102165.72
2023-08-10T20:46:36.029Z,102163.44
2023-08-10T20:51:30.002Z,102158.94
2023-08-10T20:56:23.422Z,102160.09
2023-08-10T21:01:13.521Z,102166.44
2023-08-10T21:06:03.592Z,102124.63
2023-08-10T21:10:53.783Z,102135.81
2023-08-10T21:15:46.552Z,102103.75
2023-08-10T21:20:36.727Z,102164.19
2023-08-10T21:25:26.794Z,102157.63
2023-08-10T21:30:16.818Z,102139.00
2023-08-10T21:35:10.334Z,102155.34
2023-08-10T21:40:00.409Z,102127.03
2023-08-10T21:44:50.527Z,102134.63
2023-08-10T21:49:41.069Z,102157.13
2023-08-10T21:54:33.691Z,102152.13
2023-08-10T21:59:24.076Z,102158.88
2023-08-10T22:04:14.215Z,102158.28
2023-08-10T22:09:04.244Z,102155.44
2023-08-10T22:13:56.970Z,102143.66
2023-08-10T22:18:46.936Z,102138.06
2023-08-10T22:23:37.088Z,102156.97
2023-08-10T22:28:27.073Z,102102.97
2023-08-10T22:33:20.272Z,102166.44
2023-08-10T22:38:10.308Z,102166.00
2023-08-10T22:43:00.396Z,102150.56
2023-08-10T22:47:50.488Z,102157.69
2023-08-10T22:52:43.492Z,102149.38
2023-08-10T22:57:33.800Z,102127.88
2023-08-10T23:02:23.907Z,102157.28
2023-08-10T23:07:14.116Z,102151.13
2023-08-10T23:12:08.656Z,102115.84
2023-08-10T23:16:59.619Z,102126.44
2023-08-10T23:21:49.776Z,102145.94
2023-08-10T23:26:39.854Z,102042.69
2023-08-10T23:31:33.203Z,102147.94
2023-08-10T23:36:23.204Z,102149.09
2023-08-10T23:41:13.586Z,102136.31
2023-08-10T23:46:05.209Z,102126.59
2023-08-10T23:50:58.015Z,102055.59
2023-08-10T23:55:48.092Z,102072.63
